sensor_id;sensor_type;location;lat;lon;timestamp;P1;durP1;ratioP1;P2;durP2;ratioP2
18316;SDS011;9284;52.298;21.164;2023-04-01T03:11:33;43.10;;;19.35;;
18316;SDS011;9284;52.298;21.164;2023-04-01T03:14:02;45.55;;;22.85;;
18316;SDS011;9284;52.298;21.164;2023-04-01T03:16:30;45.45;;;22.25;;
18316;SDS011;9284;52.298;21.164;2023-04-01T03:18:59;41.38;;;20.85;;
18316;SDS011;9284;52.298;21.164;2023-04-01T03:21:28;47.90;;;22.63;;
18316;SDS011;9284;52.298;21.164;2023-04-01T03:23:57;49.17;;;24.15;;
18316;SDS011;9284;52.298;21.164;2023-04-01T03:26:27;50.38;;;23.63;;
18316;SDS011;9284;52.298;21.164;2023-04-01T03:28:58;53.40;;;23.42;;
18316;SDS011;9284;52.298;21.164;2023-04-01T03:31:26;50.22;;;23.85;;
18316;SDS011;9284;52.298;21.164;2023-04-01T03:33:56;51.03;;;23.45;;
18316;SDS011;9284;52.298;21.164;2023-04-01T03:36:24;46.95;;;22.98;;
18316;SDS011;9284;52.298;21.164;2023-04-01T03:38:53;48.92;;;23.73;;
18316;SDS011;9284;52.298;21.164;2023-04-01T03:41:31;43.00;;;22.17;;
18316;SDS011;9284;52.298;21.164;2023-04-01T03:44:01;43.65;;;21.55;;
18316;SDS011;9284;52.298;21.164;2023-04-01T03:46:29;44.95;;;23.27;;
18316;SDS011;9284;52.298;21.164;2023-04-01T03:48:58;44.60;;;21.35;;
18316;SDS011;9284;52.298;21.164;2023-04-01T03:51:26;44.88;;;22.23;;
18316;SDS011;9284;52.298;21.164;2023-04-01T03:53:54;40.22;;;19.65;;
18316;SDS011;9284;52.298;21.164;2023-04-01T03:56:23;43.78;;;20.00;;
18316;SDS011;9284;52.298;21.164;2023-04-01T03:58:51;42.17;;;19.83;;
18316;SDS011;9284;52.298;21.164;2023-04-01T04:01:21;41.35;;;20.70;;
18316;SDS011;9284;52.298;21.164;2023-04-01T04:03:53;44.13;;;21.42;;
18316;SDS011;9284;52.298;21.164;2023-04-01T04:06:23;45.88;;;20.60;;
18316;SDS011;9284;52.298;21.164;2023-04-01T04:08:52;41.95;;;21.80;;
18316;SDS011;9284;52.298;21.164;2023-04-01T04:11:20;48.92;;;22.60;;
18316;SDS011;9284;52.298;21.164;2023-04-01T04:13:51;47.40;;;23.95;;
18316;SDS011;9284;52.298;21.164;2023-04-01T04:16:23;49.95;;;23.35;;
18316;SDS011;9284;52.298;21.164;2023-04-01T04:18:56;45.97;;;24.00;;
18316;SDS011;9284;52.298;21.164;2023-04-01T04:21:24;54.75;;;24.00;;
18316;SDS011;9284;52.298;21.164;2023-04-01T04:23:53;48.63;;;23.33;;
18316;SDS011;9284;52.298;21.164;2023-04-01T04:26:21;51.55;;;23.83;;
18316;SDS011;9284;52.298;21.164;2023-04-01T04:28:56;53.65;;;26.35;;
18316;SDS011;9284;52.298;21.164;2023-04-01T04:31:26;54.67;;;25.17;;
18316;SDS011;9284;52.298;21.164;2023-04-01T04:33:58;51.53;;;23.13;;
18316;SDS011;9284;52.298;21.164;2023-04-01T04:36:27;48.55;;;23.67;;
18316;SDS011;9284;52.298;21.164;2023-04-01T04:38:56;47.47;;;21.52;;
18316;SDS011;9284;52.298;21.164;2023-04-01T04:41:24;49.28;;;23.70;;
18316;SDS011;9284;52.298;21.164;2023-04-01T04:43:54;49.92;;;22.98;;
18316;SDS011;9284;52.298;21.164;2023-04-01T04:46:23;40.83;;;21.20;;
18316;SDS011;9284;52.298;21.164;2023-04-01T04:49:01;45.58;;;22.20;;
18316;SDS011;9284;52.298;21.164;2023-04-01T04:51:29;39.65;;;20.92;;
18316;SDS011;9284;52.298;21.164;2023-04-01T04:54:00;40.33;;;20.50;;
18316;SDS011;9284;52.298;21.164;2023-04-01T04:56:41;41.72;;;20.52;;
18316;SDS011;9284;52.298;21.164;2023-04-01T04:59:10;38.15;;;19.38;;
18316;SDS011;9284;52.298;21.164;2023-04-01T05:01:46;33.78;;;19.00;;
18316;SDS011;9284;52.298;21.164;2023-04-01T05:04:15;39.22;;;19.65;;
18316;SDS011;9284;52.298;21.164;2023-04-01T05:06:43;33.78;;;18.42;;
18316;SDS011;9284;52.298;21.164;2023-04-01T05:09:13;41.08;;;20.50;;
18316;SDS011;9284;52.298;21.164;2023-04-01T05:11:42;33.92;;;18.38;;
18316;SDS011;9284;52.298;21.164;2023-04-01T05:14:12;36.67;;;19.98;;
18316;SDS011;9284;52.298;21.164;2023-04-01T05:16:44;36.10;;;19.33;;
18316;SDS011;9284;52.298;21.164;2023-04-01T05:19:15;35.50;;;18.02;;
18316;SDS011;9284;52.298;21.164;2023-04-01T05:21:44;36.60;;;18.55;;
18316;SDS011;9284;52.298;21.164;2023-04-01T05:24:12;33.38;;;17.92;;
18316;SDS011;9284;52.298;21.164;2023-04-01T05:26:41;34.58;;;17.98;;
18316;SDS011;9284;52.298;21.164;2023-04-01T05:29:09;32.70;;;18.15;;
18316;SDS011;9284;52.298;21.164;2023-04-01T05:31:38;32.45;;;16.67;;
18316;SDS011;9284;52.298;21.164;2023-04-01T05:34:08;35.05;;;17.50;;
18316;SDS011;9284;52.298;21.164;2023-04-01T05:36:37;35.22;;;17.83;;
18316;SDS011;9284;52.298;21.164;2023-04-01T05:39:05;32.78;;;17.08;;
18316;SDS011;9284;52.298;21.164;2023-04-01T05:41:34;35.72;;;16.98;;
18316;SDS011;9284;52.298;21.164;2023-04-01T05:44:03;32.40;;;17.48;;
18316;SDS011;9284;52.298;21.164;2023-04-01T05:46:38;28.77;;;15.45;;
18316;SDS011;9284;52.298;21.164;2023-04-01T05:49:34;26.73;;;15.10;;
18316;SDS011;9284;52.298;21.164;2023-04-01T05:52:03;27.05;;;15.40;;
18316;SDS011;9284;52.298;21.164;2023-04-01T05:54:34;25.58;;;15.10;;
18316;SDS011;9284;52.298;21.164;2023-04-01T05:57:02;26.05;;;14.50;;
18316;SDS011;9284;52.298;21.164;2023-04-01T05:59:31;24.88;;;15.00;;
18316;SDS011;9284;52.298;21.164;2023-04-01T06:02:02;24.77;;;14.88;;
18316;SDS011;9284;52.298;21.164;2023-04-01T06:04:32;25.77;;;15.48;;
18316;SDS011;9284;52.298;21.164;2023-04-01T06:07:09;22.95;;;13.48;;
18316;SDS011;9284;52.298;21.164;2023-04-01T06:09:39;21.58;;;13.68;;
18316;SDS011;9284;52.298;21.164;2023-04-01T06:12:13;21.55;;;12.98;;
18316;SDS011;9284;52.298;21.164;2023-04-01T06:15:04;25.38;;;14.43;;
18316;SDS011;9284;52.298;21.164;2023-04-01T06:17:50;21.30;;;13.55;;
18316;SDS011;9284;52.298;21.164;2023-04-01T06:20:32;23.90;;;14.43;;
18316;SDS011;9284;52.298;21.164;2023-04-01T06:23:14;25.48;;;14.57;;
18316;SDS011;9284;52.298;21.164;2023-04-01T06:25:57;17.27;;;10.90;;
18316;SDS011;9284;52.298;21.164;2023-04-01T06:28:39;17.13;;;9.88;;
18316;SDS011;9284;52.298;21.164;2023-04-01T06:31:22;13.95;;;8.63;;
18316;SDS011;9284;52.298;21.164;2023-04-01T06:37:03;13.65;;;9.00;;
18316;SDS011;9284;52.298;21.164;2023-04-01T06:39:47;12.20;;;7.57;;
18316;SDS011;9284;52.298;21.164;2023-04-01T06:42:40;9.27;;;6.72;;
18316;SDS011;9284;52.298;21.164;2023-04-01T06:45:49;9.68;;;6.60;;
18316;SDS011;9284;52.298;21.164;2023-04-01T06:48:45;8.25;;;6.35;;
18316;SDS011;9284;52.298;21.164;2023-04-01T06:51:55;9.43;;;5.63;;
18316;SDS011;9284;52.298;21.164;2023-04-01T06:54:51;6.88;;;4.90;;
18316;SDS011;9284;52.298;21.164;2023-04-01T06:57:41;7.93;;;5.47;;
18316;SDS011;9284;52.298;21.164;2023-04-01T07:00:25;6.63;;;4.72;;
18316;SDS011;9284;52.298;21.164;2023-04-01T07:03:01;5.97;;;4.18;;
18316;SDS011;9284;52.298;21.164;2023-04-01T07:05:35;6.35;;;4.53;;
18316;SDS011;9284;52.298;21.164;2023-04-01T07:08:04;5.93;;;4.47;;
18316;SDS011;9284;52.298;21.164;2023-04-01T07:10:41;6.28;;;4.30;;
18316;SDS011;9284;52.298;21.164;2023-04-01T07:13:46;6.93;;;4.20;;
18316;SDS011;9284;52.298;21.164;2023-04-01T07:16:19;7.65;;;4.55;;
18316;SDS011;9284;52.298;21.164;2023-04-01T07:18:52;5.50;;;3.97;;
18316;SDS011;9284;52.298;21.164;2023-04-01T07:21:34;7.35;;;4.35;;
18316;SDS011;9284;52.298;21.164;2023-04-01T07:24:17;5.90;;;3.72;;
18316;SDS011;9284;52.298;21.164;2023-04-01T07:27:05;5.25;;;3.47;;
18316;SDS011;9284;52.298;21.164;2023-04-01T07:29:37;4.82;;;3.40;;
18316;SDS011;9284;52.298;21.164;2023-04-01T07:32:12;3.28;;;2.80;;
18316;SDS011;9284;52.298;21.164;2023-04-01T07:37:39;5.65;;;2.70;;
18316;SDS011;9284;52.298;21.164;2023-04-01T07:40:20;3.85;;;2.25;;
18316;SDS011;9284;52.298;21.164;2023-04-01T07:43:01;3.40;;;2.28;;
18316;SDS011;9284;52.298;21.164;2023-04-01T07:45:45;2.95;;;2.00;;
18316;SDS011;9284;52.298;21.164;2023-04-01T07:48:21;3.17;;;2.30;;
18316;SDS011;9284;52.298;21.164;2023-04-01T07:51:02;4.78;;;2.25;;
18316;SDS011;9284;52.298;21.164;2023-04-01T07:53:36;4.28;;;2.53;;
18316;SDS011;9284;52.298;21.164;2023-04-01T07:56:12;3.65;;;2.67;;
18316;SDS011;9284;52.298;21.164;2023-04-01T07:58:51;3.80;;;3.03;;
18316;SDS011;9284;52.298;21.164;2023-04-01T08:02:01;4.72;;;3.20;;
18316;SDS011;9284;52.298;21.164;2023-04-01T08:04:40;6.85;;;3.58;;
18316;SDS011;9284;52.298;21.164;2023-04-01T08:07:17;5.82;;;4.22;;
18316;SDS011;9284;52.298;21.164;2023-04-01T08:10:11;6.28;;;4.38;;
18316;SDS011;9284;52.298;21.164;2023-04-01T08:13:06;6.95;;;4.38;;
18316;SDS011;9284;52.298;21.164;2023-04-01T08:16:05;7.25;;;4.80;;
18316;SDS011;9284;52.298;21.164;2023-04-01T08:18:50;7.68;;;5.30;;
18316;SDS011;9284;52.298;21.164;2023-04-01T08:21:25;7.63;;;6.10;;
18316;SDS011;9284;52.298;21.164;2023-04-01T08:23:56;8.32;;;6.50;;
18316;SDS011;9284;52.298;21.164;2023-04-01T08:26:28;12.65;;;8.30;;
18316;SDS011;9284;52.298;21.164;2023-04-01T08:29:04;12.85;;;8.32;;
18316;SDS011;9284;52.298;21.164;2023-04-01T08:31:40;13.68;;;9.00;;
18316;SDS011;9284;52.298;21.164;2023-04-01T08:34:15;16.52;;;8.57;;
18316;SDS011;9284;52.298;21.164;2023-04-01T08:36:49;15.93;;;8.63;;
18316;SDS011;9284;52.298;21.164;2023-04-01T08:39:22;13.43;;;8.95;;
18316;SDS011;9284;52.298;21.164;2023-04-01T08:42:10;13.95;;;8.55;;
18316;SDS011;9284;52.298;21.164;2023-04-01T08:48:14;15.15;;;8.77;;
18316;SDS011;9284;52.298;21.164;2023-04-01T08:57:31;12.27;;;7.93;;
18316;SDS011;9284;52.298;21.164;2023-04-01T09:00:29;12.98;;;8.52;;
18316;SDS011;9284;52.298;21.164;2023-04-01T09:09:06;12.00;;;6.70;;
18316;SDS011;9284;52.298;21.164;2023-04-01T09:21:13;9.30;;;5.65;;
18316;SDS011;9284;52.298;21.164;2023-04-01T09:24:12;9.85;;;5.45;;
18316;SDS011;9284;52.298;21.164;2023-04-01T09:27:05;12.02;;;5.18;;
18316;SDS011;9284;52.298;21.164;2023-04-01T09:32:42;6.93;;;4.80;;
18316;SDS011;9284;52.298;21.164;2023-04-01T09:35:30;6.25;;;4.97;;
18316;SDS011;9284;52.298;21.164;2023-04-01T09:38:19;9.00;;;4.35;;
18316;SDS011;9284;52.298;21.164;2023-04-01T09:40:56;7.05;;;4.78;;
18316;SDS011;9284;52.298;21.164;2023-04-01T09:44:01;9.55;;;5.50;;
18316;SDS011;9284;52.298;21.164;2023-04-01T09:46:46;6.35;;;4.63;;
18316;SDS011;9284;52.298;21.164;2023-04-01T09:49:43;5.72;;;4.70;;
18316;SDS011;9284;52.298;21.164;2023-04-01T09:52:25;7.22;;;4.60;;
18316;SDS011;9284;52.298;21.164;2023-04-01T09:55:18;6.95;;;4.70;;
18316;SDS011;9284;52.298;21.164;2023-04-01T09:58:06;7.05;;;4.85;;
18316;SDS011;9284;52.298;21.164;2023-04-01T10:01:19;6.50;;;4.40;;
18316;SDS011;9284;52.298;21.164;2023-04-01T10:04:16;8.18;;;4.95;;
18316;SDS011;9284;52.298;21.164;2023-04-01T10:10:38;15.27;;;6.05;;
18316;SDS011;9284;52.298;21.164;2023-04-01T10:23:16;10.90;;;6.25;;
18316;SDS011;9284;52.298;21.164;2023-04-01T10:26:12;8.65;;;6.03;;
18316;SDS011;9284;52.298;21.164;2023-04-01T10:38:59;9.63;;;5.20;;
18316;SDS011;9284;52.298;21.164;2023-04-01T10:52:48;6.68;;;4.80;;
18316;SDS011;9284;52.298;21.164;2023-04-01T10:59:28;7.10;;;4.47;;
18316;SDS011;9284;52.298;21.164;2023-04-01T11:02:56;3.88;;;3.25;;
18316;SDS011;9284;52.298;21.164;2023-04-01T11:13:02;3.50;;;2.70;;
18316;SDS011;9284;52.298;21.164;2023-04-01T11:32:02;3.45;;;2.40;;
18316;SDS011;9284;52.298;21.164;2023-04-01T11:38:18;3.35;;;2.58;;
18316;SDS011;9284;52.298;21.164;2023-04-01T11:41:27;4.60;;;3.03;;
18316;SDS011;9284;52.298;21.164;2023-04-01T11:44:32;4.47;;;2.63;;
18316;SDS011;9284;52.298;21.164;2023-04-01T11:47:25;5.00;;;3.15;;
18316;SDS011;9284;52.298;21.164;2023-04-01T11:50:18;4.72;;;3.13;;
18316;SDS011;9284;52.298;21.164;2023-04-01T11:53:04;3.42;;;2.63;;
18316;SDS011;9284;52.298;21.164;2023-04-01T11:55:59;8.32;;;3.10;;
18316;SDS011;9284;52.298;21.164;2023-04-01T11:59:00;5.57;;;3.20;;
18316;SDS011;9284;52.298;21.164;2023-04-01T12:02:28;3.92;;;3.13;;
18316;SDS011;9284;52.298;21.164;2023-04-01T12:05:26;4.45;;;3.35;;
18316;SDS011;9284;52.298;21.164;2023-04-01T12:08:31;4.90;;;3.65;;
18316;SDS011;9284;52.298;21.164;2023-04-01T12:11:29;4.25;;;2.92;;
18316;SDS011;9284;52.298;21.164;2023-04-01T12:14:19;6.93;;;3.80;;
18316;SDS011;9284;52.298;21.164;2023-04-01T12:17:02;6.57;;;4.50;;
18316;SDS011;9284;52.298;21.164;2023-04-01T12:19:47;6.22;;;4.20;;
18316;SDS011;9284;52.298;21.164;2023-04-01T12:22:39;5.82;;;4.35;;
18316;SDS011;9284;52.298;21.164;2023-04-01T12:25:49;5.72;;;3.88;;
18316;SDS011;9284;52.298;21.164;2023-04-01T12:28:52;5.93;;;4.05;;
18316;SDS011;9284;52.298;21.164;2023-04-01T12:31:42;7.00;;;3.40;;
18316;SDS011;9284;52.298;21.164;2023-04-01T12:34:37;5.90;;;3.28;;
18316;SDS011;9284;52.298;21.164;2023-04-01T12:37:48;3.65;;;2.72;;
18316;SDS011;9284;52.298;21.164;2023-04-01T12:40:35;4.45;;;2.40;;
18316;SDS011;9284;52.298;21.164;2023-04-01T12:43:34;3.08;;;1.90;;
18316;SDS011;9284;52.298;21.164;2023-04-01T12:46:30;2.28;;;1.70;;
18316;SDS011;9284;52.298;21.164;2023-04-01T12:49:21;1.58;;;1.23;;
18316;SDS011;9284;52.298;21.164;2023-04-01T12:52:17;1.50;;;1.40;;
18316;SDS011;9284;52.298;21.164;2023-04-01T13:01:28;1.23;;;1.13;;
18316;SDS011;9284;52.298;21.164;2023-04-01T13:04:12;1.95;;;1.50;;
18316;SDS011;9284;52.298;21.164;2023-04-01T13:07:16;1.33;;;1.17;;
18316;SDS011;9284;52.298;21.164;2023-04-01T13:09:57;1.27;;;1.10;;
18316;SDS011;9284;52.298;21.164;2023-04-01T13:12:50;1.40;;;1.30;;
18316;SDS011;9284;52.298;21.164;2023-04-01T13:15:37;2.53;;;1.30;;
18316;SDS011;9284;52.298;21.164;2023-04-01T13:18:25;1.70;;;1.35;;
18316;SDS011;9284;52.298;21.164;2023-04-01T13:21:21;2.10;;;1.50;;
18316;SDS011;9284;52.298;21.164;2023-04-01T13:24:01;2.00;;;1.83;;
18316;SDS011;9284;52.298;21.164;2023-04-01T13:26:40;2.58;;;1.70;;
18316;SDS011;9284;52.298;21.164;2023-04-01T13:29:19;2.10;;;1.73;;
18316;SDS011;9284;52.298;21.164;2023-04-01T13:32:00;2.28;;;1.70;;
18316;SDS011;9284;52.298;21.164;2023-04-01T13:34:44;2.42;;;1.80;;
18316;SDS011;9284;52.298;21.164;2023-04-01T13:37:35;3.22;;;2.20;;
18316;SDS011;9284;52.298;21.164;2023-04-01T13:40:33;2.25;;;1.90;;
18316;SDS011;9284;52.298;21.164;2023-04-01T13:43:24;2.65;;;2.00;;
18316;SDS011;9284;52.298;21.164;2023-04-01T13:49:02;2.28;;;1.83;;
18316;SDS011;9284;52.298;21.164;2023-04-01T13:51:58;2.80;;;1.55;;
18316;SDS011;9284;52.298;21.164;2023-04-01T13:54:56;2.78;;;1.88;;
18316;SDS011;9284;52.298;21.164;2023-04-01T13:57:52;2.90;;;1.98;;
18316;SDS011;9284;52.298;21.164;2023-04-01T14:00:37;2.63;;;1.83;;
18316;SDS011;9284;52.298;21.164;2023-04-01T14:03:31;2.85;;;2.03;;
18316;SDS011;9284;52.298;21.164;2023-04-01T14:06:14;3.25;;;2.25;;
18316;SDS011;9284;52.298;21.164;2023-04-01T14:11:56;3.10;;;2.00;;
18316;SDS011;9284;52.298;21.164;2023-04-01T14:14:35;5.50;;;2.85;;
18316;SDS011;9284;52.298;21.164;2023-04-01T14:17:19;3.35;;;2.75;;
18316;SDS011;9284;52.298;21.164;2023-04-01T14:20:06;5.47;;;3.45;;
18316;SDS011;9284;52.298;21.164;2023-04-01T14:23:01;4.18;;;3.25;;
18316;SDS011;9284;52.298;21.164;2023-04-01T14:25:48;4.70;;;3.50;;
18316;SDS011;9284;52.298;21.164;2023-04-01T14:28:33;5.40;;;3.60;;
18316;SDS011;9284;52.298;21.164;2023-04-01T14:31:15;10.88;;;4.07;;
18316;SDS011;9284;52.298;21.164;2023-04-01T14:34:00;7.15;;;4.00;;
18316;SDS011;9284;52.298;21.164;2023-04-01T14:36:53;5.95;;;3.42;;
18316;SDS011;9284;52.298;21.164;2023-04-01T14:42:55;7.05;;;3.58;;
18316;SDS011;9284;52.298;21.164;2023-04-01T14:45:45;8.07;;;3.30;;
18316;SDS011;9284;52.298;21.164;2023-04-01T14:48:34;4.35;;;2.83;;
18316;SDS011;9284;52.298;21.164;2023-04-01T14:51:13;3.47;;;2.35;;
18316;SDS011;9284;52.298;21.164;2023-04-01T14:53:58;5.35;;;3.10;;
18316;SDS011;9284;52.298;21.164;2023-04-01T14:56:35;4.40;;;2.65;;
18316;SDS011;9284;52.298;21.164;2023-04-01T14:59:09;4.75;;;3.03;;
18316;SDS011;9284;52.298;21.164;2023-04-01T15:01:47;4.35;;;3.20;;
18316;SDS011;9284;52.298;21.164;2023-04-01T15:04:41;6.80;;;3.50;;
18316;SDS011;9284;52.298;21.164;2023-04-01T15:13:46;4.53;;;2.92;;
18316;SDS011;9284;52.298;21.164;2023-04-01T15:16:39;4.45;;;2.67;;
18316;SDS011;9284;52.298;21.164;2023-04-01T15:19:21;5.93;;;3.25;;
18316;SDS011;9284;52.298;21.164;2023-04-01T15:22:07;6.38;;;3.88;;
18316;SDS011;9284;52.298;21.164;2023-04-01T15:25:03;4.50;;;2.80;;
18316;SDS011;9284;52.298;21.164;2023-04-01T15:28:01;6.00;;;3.67;;
18316;SDS011;9284;52.298;21.164;2023-04-01T15:30:46;6.82;;;3.88;;
18316;SDS011;9284;52.298;21.164;2023-04-01T15:33:31;5.93;;;4.25;;
18316;SDS011;9284;52.298;21.164;2023-04-01T15:36:40;8.57;;;4.20;;
18316;SDS011;9284;52.298;21.164;2023-04-01T15:39:20;6.38;;;3.60;;
18316;SDS011;9284;52.298;21.164;2023-04-01T15:42:07;6.93;;;4.40;;
18316;SDS011;9284;52.298;21.164;2023-04-01T15:45:01;8.55;;;3.70;;
18316;SDS011;9284;52.298;21.164;2023-04-01T15:47:40;4.50;;;3.30;;
18316;SDS011;9284;52.298;21.164;2023-04-01T15:53:08;9.30;;;5.28;;
18316;SDS011;9284;52.298;21.164;2023-04-01T15:55:54;35.33;;;11.43;;
18316;SDS011;9284;52.298;21.164;2023-04-01T15:58:34;45.85;;;20.13;;
18316;SDS011;9284;52.298;21.164;2023-04-01T16:01:22;23.10;;;8.75;;
18316;SDS011;9284;52.298;21.164;2023-04-01T16:04:00;21.42;;;9.68;;
18316;SDS011;9284;52.298;21.164;2023-04-01T16:06:55;35.72;;;15.73;;
18316;SDS011;9284;52.298;21.164;2023-04-01T16:12:46;17.98;;;10.60;;
18316;SDS011;9284;52.298;21.164;2023-04-01T16:15:24;13.05;;;7.72;;
18316;SDS011;9284;52.298;21.164;2023-04-01T16:18:07;10.82;;;6.65;;
18316;SDS011;9284;52.298;21.164;2023-04-01T16:20:57;11.18;;;7.45;;
18316;SDS011;9284;52.298;21.164;2023-04-01T16:23:35;22.73;;;9.32;;
18316;SDS011;9284;52.298;21.164;2023-04-01T16:26:13;9.48;;;5.72;;
18316;SDS011;9284;52.298;21.164;2023-04-01T16:28:53;12.57;;;6.43;;
18316;SDS011;9284;52.298;21.164;2023-04-01T16:31:34;19.60;;;8.88;;
18316;SDS011;9284;52.298;21.164;2023-04-01T16:34:26;14.30;;;6.70;;
18316;SDS011;9284;52.298;21.164;2023-04-01T16:37:04;8.07;;;4.80;;
18316;SDS011;9284;52.298;21.164;2023-04-01T16:39:43;5.97;;;3.80;;
18316;SDS011;9284;52.298;21.164;2023-04-01T16:42:31;5.88;;;3.60;;
18316;SDS011;9284;52.298;21.164;2023-04-01T16:45:23;8.95;;;4.47;;
18316;SDS011;9284;52.298;21.164;2023-04-01T16:48:17;5.45;;;3.47;;
18316;SDS011;9284;52.298;21.164;2023-04-01T16:50:53;7.05;;;4.28;;
18316;SDS011;9284;52.298;21.164;2023-04-01T16:53:42;5.80;;;3.53;;
18316;SDS011;9284;52.298;21.164;2023-04-01T16:56:20;4.88;;;3.15;;
18316;SDS011;9284;52.298;21.164;2023-04-01T16:58:58;6.07;;;3.22;;
18316;SDS011;9284;52.298;21.164;2023-04-01T17:01:36;7.25;;;3.83;;
18316;SDS011;9284;52.298;21.164;2023-04-01T17:04:14;7.18;;;4.22;;
18316;SDS011;9284;52.298;21.164;2023-04-01T17:06:58;6.82;;;3.70;;
18316;SDS011;9284;52.298;21.164;2023-04-01T17:09:38;5.30;;;3.40;;
18316;SDS011;9284;52.298;21.164;2023-04-01T17:12:24;6.40;;;3.42;;
18316;SDS011;9284;52.298;21.164;2023-04-01T17:15:12;5.88;;;3.85;;
18316;SDS011;9284;52.298;21.164;2023-04-01T17:17:52;6.72;;;4.10;;
18316;SDS011;9284;52.298;21.164;2023-04-01T17:20:31;8.32;;;4.35;;
18316;SDS011;9284;52.298;21.164;2023-04-01T17:23:12;7.72;;;5.13;;
18316;SDS011;9284;52.298;21.164;2023-04-01T17:25:52;9.73;;;5.18;;
18316;SDS011;9284;52.298;21.164;2023-04-01T17:28:34;7.13;;;4.65;;
18316;SDS011;9284;52.298;21.164;2023-04-01T17:31:14;12.52;;;6.05;;
18316;SDS011;9284;52.298;21.164;2023-04-01T17:33:59;8.90;;;5.28;;
18316;SDS011;9284;52.298;21.164;2023-04-01T17:36:42;14.27;;;7.28;;
18316;SDS011;9284;52.298;21.164;2023-04-01T17:39:29;19.52;;;9.48;;
18316;SDS011;9284;52.298;21.164;2023-04-01T17:42:12;19.73;;;10.15;;
18316;SDS011;9284;52.298;21.164;2023-04-01T17:44:47;21.20;;;9.88;;
18316;SDS011;9284;52.298;21.164;2023-04-01T17:47:31;20.42;;;9.18;;
18316;SDS011;9284;52.298;21.164;2023-04-01T17:50:20;18.20;;;9.27;;
18316;SDS011;9284;52.298;21.164;2023-04-01T17:52:57;9.70;;;5.40;;
18316;SDS011;9284;52.298;21.164;2023-04-01T17:55:55;9.00;;;4.97;;
18316;SDS011;9284;52.298;21.164;2023-04-01T17:58:34;16.17;;;5.65;;
18316;SDS011;9284;52.298;21.164;2023-04-01T18:01:29;15.77;;;7.55;;
18316;SDS011;9284;52.298;21.164;2023-04-01T18:04:24;11.52;;;4.35;;
18316;SDS011;9284;52.298;21.164;2023-04-01T18:07:21;12.27;;;5.40;;
18316;SDS011;9284;52.298;21.164;2023-04-01T18:10:10;6.60;;;3.78;;
18316;SDS011;9284;52.298;21.164;2023-04-01T18:12:59;8.45;;;4.30;;
18316;SDS011;9284;52.298;21.164;2023-04-01T18:15:50;8.13;;;4.45;;
18316;SDS011;9284;52.298;21.164;2023-04-01T18:18:35;10.20;;;6.40;;
18316;SDS011;9284;52.298;21.164;2023-04-01T18:21:12;9.43;;;5.78;;
18316;SDS011;9284;52.298;21.164;2023-04-01T18:23:51;12.93;;;6.85;;
18316;SDS011;9284;52.298;21.164;2023-04-01T18:26:31;13.73;;;7.57;;
18316;SDS011;9284;52.298;21.164;2023-04-01T18:29:04;16.00;;;8.48;;
18316;SDS011;9284;52.298;21.164;2023-04-01T18:31:49;13.50;;;7.82;;
18316;SDS011;9284;52.298;21.164;2023-04-01T18:34:36;12.05;;;7.03;;
18316;SDS011;9284;52.298;21.164;2023-04-01T18:37:15;13.13;;;7.93;;
18316;SDS011;9284;52.298;21.164;2023-04-01T18:39:57;12.05;;;6.85;;
18316;SDS011;9284;52.298;21.164;2023-04-01T18:42:38;11.40;;;6.82;;
18316;SDS011;9284;52.298;21.164;2023-04-01T18:45:19;13.82;;;7.60;;
18316;SDS011;9284;52.298;21.164;2023-04-01T18:48:15;11.15;;;6.95;;
18316;SDS011;9284;52.298;21.164;2023-04-01T18:51:14;11.55;;;6.93;;
18316;SDS011;9284;52.298;21.164;2023-04-01T18:53:53;14.63;;;7.15;;
18316;SDS011;9284;52.298;21.164;2023-04-01T18:56:31;12.57;;;7.88;;
18316;SDS011;9284;52.298;21.164;2023-04-01T18:59:11;12.15;;;7.75;;
18316;SDS011;9284;52.298;21.164;2023-04-01T19:01:50;12.77;;;7.95;;
18316;SDS011;9284;52.298;21.164;2023-04-01T19:04:30;12.02;;;8.00;;
18316;SDS011;9284;52.298;21.164;2023-04-01T19:07:26;14.75;;;8.88;;
18316;SDS011;9284;52.298;21.164;2023-04-01T19:10:15;13.40;;;8.00;;
18316;SDS011;9284;52.298;21.164;2023-04-01T19:12:54;11.32;;;7.68;;
18316;SDS011;9284;52.298;21.164;2023-04-01T19:15:47;13.93;;;7.85;;
18316;SDS011;9284;52.298;21.164;2023-04-01T19:18:28;14.90;;;8.20;;
18316;SDS011;9284;52.298;21.164;2023-04-01T19:21:15;13.13;;;7.55;;
18316;SDS011;9284;52.298;21.164;2023-04-01T19:26:53;12.25;;;6.65;;
18316;SDS011;9284;52.298;21.164;2023-04-01T19:29:39;11.23;;;6.80;;
18316;SDS011;9284;52.298;21.164;2023-04-01T19:32:25;10.93;;;6.53;;
18316;SDS011;9284;52.298;21.164;2023-04-01T19:38:15;11.00;;;6.55;;
18316;SDS011;9284;52.298;21.164;2023-04-01T19:40:54;11.93;;;6.43;;
18316;SDS011;9284;52.298;21.164;2023-04-01T19:46:25;10.95;;;6.25;;
18316;SDS011;9284;52.298;21.164;2023-04-01T19:49:06;10.38;;;6.65;;
18316;SDS011;9284;52.298;21.164;2023-04-01T19:51:55;13.05;;;7.03;;
18316;SDS011;9284;52.298;21.164;2023-04-01T19:54:41;12.02;;;7.20;;
18316;SDS011;9284;52.298;21.164;2023-04-01T19:57:25;13.63;;;7.03;;
18316;SDS011;9284;52.298;21.164;2023-04-01T20:00:02;13.95;;;8.40;;
18316;SDS011;9284;52.298;21.164;2023-04-01T20:02:43;13.18;;;7.80;;
18316;SDS011;9284;52.298;21.164;2023-04-01T20:05:46;11.75;;;7.47;;
18316;SDS011;9284;52.298;21.164;2023-04-01T20:08:38;12.68;;;7.32;;
18316;SDS011;9284;52.298;21.164;2023-04-01T20:11:18;11.57;;;7.15;;
18316;SDS011;9284;52.298;21.164;2023-04-01T20:14:00;11.35;;;7.00;;
18316;SDS011;9284;52.298;21.164;2023-04-01T20:16:40;10.93;;;6.93;;
18316;SDS011;9284;52.298;21.164;2023-04-01T20:19:28;11.50;;;6.70;;
18316;SDS011;9284;52.298;21.164;2023-04-01T20:22:03;12.70;;;7.15;;
18316;SDS011;9284;52.298;21.164;2023-04-01T20:24:49;12.10;;;7.35;;
18316;SDS011;9284;52.298;21.164;2023-04-01T20:27:20;10.98;;;6.68;;
18316;SDS011;9284;52.298;21.164;2023-04-01T20:30:03;10.88;;;6.30;;
18316;SDS011;9284;52.298;21.164;2023-04-01T20:32:55;12.50;;;6.50;;
18316;SDS011;9284;52.298;21.164;2023-04-01T20:35:35;11.82;;;5.95;;
18316;SDS011;9284;52.298;21.164;2023-04-01T20:41:19;9.23;;;5.75;;
18316;SDS011;9284;52.298;21.164;2023-04-01T20:43:57;15.57;;;7.25;;
18316;SDS011;9284;52.298;21.164;2023-04-01T20:46:34;15.80;;;7.40;;
18316;SDS011;9284;52.298;21.164;2023-04-01T20:49:23;15.57;;;6.75;;
18316;SDS011;9284;52.298;21.164;2023-04-01T20:52:25;9.60;;;5.75;;
18316;SDS011;9284;52.298;21.164;2023-04-01T20:57:58;7.40;;;4.95;;
18316;SDS011;9284;52.298;21.164;2023-04-01T21:00:42;6.22;;;4.85;;
18316;SDS011;9284;52.298;21.164;2023-04-01T21:03:23;7.25;;;4.78;;
18316;SDS011;9284;52.298;21.164;2023-04-01T21:06:07;11.77;;;7.80;;
18316;SDS011;9284;52.298;21.164;2023-04-01T21:08:49;9.18;;;5.22;;
18316;SDS011;9284;52.298;21.164;2023-04-01T21:11:31;7.78;;;5.13;;
18316;SDS011;9284;52.298;21.164;2023-04-01T21:14:26;7.30;;;4.30;;
18316;SDS011;9284;52.298;21.164;2023-04-01T21:17:11;6.93;;;4.20;;
18316;SDS011;9284;52.298;21.164;2023-04-01T21:19:50;7.40;;;4.63;;
18316;SDS011;9284;52.298;21.164;2023-04-01T21:22:30;6.70;;;3.75;;
18316;SDS011;9284;52.298;21.164;2023-04-01T21:25:22;6.78;;;4.20;;
18316;SDS011;9284;52.298;21.164;2023-04-01T21:28:09;7.25;;;4.22;;
18316;SDS011;9284;52.298;21.164;2023-04-01T21:30:57;5.53;;;4.15;;
18316;SDS011;9284;52.298;21.164;2023-04-01T21:33:36;7.60;;;3.65;;
18316;SDS011;9284;52.298;21.164;2023-04-01T21:36:19;7.13;;;4.53;;
18316;SDS011;9284;52.298;21.164;2023-04-01T21:38:56;6.82;;;4.72;;
18316;SDS011;9284;52.298;21.164;2023-04-01T21:41:35;6.45;;;4.38;;
18316;SDS011;9284;52.298;21.164;2023-04-01T21:44:27;7.90;;;4.32;;